X  Close Metar Aviation Weather Data     KCRE Grand Strand Airport
Temperature
41°F Temperature
37°F Dewpoint
87% Humidity



Wind
3 MPH
5 KM/H
1 M/S
3 KTS



40°
NE
Current Conditions

Clear Clear
Pressure 1023.72 (hPa) - 30.23 (inHg)
Visibility 9.9 (mile) - 16 (km)
Airport
Airport-code KCRE

Location: Grand Strand Airport
Distance: 6 (mi)

Metar:
KCRE 040753Z AUTO 04003KT 10SM CLR 05/03 A3023 RMK AO1 SLP239 T00500033

Time: 04-12-2020 2:53 am EST